Time;durP1;ratioP1;P1;durP2;ratioP2;P2;SDS_P1;SDS_P2;PMS_P1;PMS_P2;Temp;Humidity;BMP_temperature;BMP_pressure;BME280_temperature;BME280_humidity;BME280_pressure;Samples;Min_cycle;Max_cycle;Signal;HPM_P1;HPM_P2
2022/10/15 08:37:22;;;;;;;;;0.00;0.00;;;;;17.94;90.83;100532.38;5612863;22;50020;-72
2022/10/15 08:39:48;;;;;;;;;1.00;0.00;;;;;18.14;89.76;100557.81;5007244;28;50076;-72
2022/10/15 08:42:22;;;;;;;;;0.75;0.75;;;;;18.20;90.03;100557.72;5005840;28;63152;-72
2022/10/15 08:44:57;;;;;;;;;13.00;7.75;;;;;18.25;89.55;100553.25;5005551;28;49704;-75
2022/10/15 08:47:44;;;;;;;;;7.50;7.50;;;;;18.48;89.18;100580.34;4996571;28;49866;-77
2022/10/15 08:50:39;;;;;;;;;6.25;6.25;;;;;18.62;88.46;100580.16;5007930;28;49690;-79
2022/10/15 08:53:04;;;;;;;;;3.50;0.50;;;;;18.42;87.66;100531.72;5009780;28;50162;-72
2022/10/15 08:55:37;;;;;;;;;1.50;1.50;;;;;18.69;87.63;100587.16;5004689;28;49966;-69
2022/10/15 08:58:21;;;;;;;;;0.00;0.00;;;;;18.73;87.22;100582.69;5011355;28;49854;-71
2022/10/15 09:00:50;;;;;;;;;0.00;0.00;;;;;18.78;86.91;100581.72;5006355;28;49974;-68
2022/10/15 09:03:30;;;;;;;;;0.00;0.00;;;;;18.86;86.68;100587.78;5011593;28;51669;-70
2022/10/15 09:06:06;;;;;;;;;0.00;0.00;;;;;19.00;86.43;100592.88;5011593;28;50197;-69
2022/10/15 09:09:09;;;;;;;;;1.00;0.00;;;;;19.05;86.26;100590.16;5011883;28;49746;-70
2022/10/15 09:11:54;;;;;;;;;0.75;0.00;;;;;18.93;85.18;100561.09;5011826;28;49828;-74
2022/10/15 09:14:25;;;;;;;;;0.00;0.00;;;;;19.12;85.05;100586.50;5011398;28;50825;-72
2022/10/15 09:16:50;;;;;;;;;0.00;0.00;;;;;19.39;83.61;100595.75;5011266;28;50304;-76
2022/10/15 09:19:22;;;;;;;;;1.50;0.00;;;;;19.50;83.26;100598.25;5011550;28;49933;-74
2022/10/15 09:21:50;;;;;;;;;0.00;0.00;;;;;19.50;82.93;100584.94;5011695;28;50015;-76
2022/10/15 09:24:26;;;;;;;;;0.00;0.00;;;;;19.43;81.21;100585.03;5026623;28;50690;-79
2022/10/15 09:27:31;;;;;;;;;0.00;0.00;;;;;19.27;80.84;100578.22;4996584;28;49644;-77
2022/10/15 09:30:32;;;;;;;;;0.00;0.00;;;;;19.43;81.20;100614.31;5010803;28;50195;-77
2022/10/15 09:32:57;;;;;;;;;1.00;0.00;;;;;19.47;81.19;100620.47;5011434;28;49924;-78
2022/10/15 09:35:51;;;;;;;;;0.00;0.00;;;;;19.43;81.40;100608.13;5004106;28;49982;-72
2022/10/15 09:38:57;;;;;;;;;0.00;0.00;;;;;19.59;80.87;100622.97;5005719;28;49853;-83
2022/10/15 09:42:05;;;;;;;;;0.00;0.00;;;;;19.69;80.42;100616.56;4999399;28;49853;-84
2022/10/15 09:44:37;;;;;;;;;1.50;1.00;;;;;19.48;80.92;100571.63;4991873;28;50397;-82
2022/10/15 09:47:22;;;;;;;;;1.00;1.00;;;;;19.83;80.87;100621.59;5007574;28;50916;-72
2022/10/15 09:49:47;;;;;;;;;0.75;0.75;;;;;19.71;80.50;100604.06;5007378;28;49697;-72
2022/10/15 09:52:21;;;;;;;;;1.00;1.00;;;;;20.12;79.67;100623.69;5009796;28;49762;-71
2022/10/15 09:55:07;;;;;;;;;3.50;1.00;;;;;20.06;78.79;100602.47;5013483;28;49780;-78
2022/10/15 09:57:35;;;;;;;;;0.00;0.00;;;;;20.21;78.30;100620.84;5006844;28;52501;-77
2022/10/15 10:00:08;;;;;;;;;0.00;0.00;;;;;20.13;77.71;100613.91;5007210;28;49865;-73
2022/10/15 10:02:33;;;;;;;;;0.00;0.00;;;;;20.37;77.46;100650.72;5007921;28;49835;-72
2022/10/15 10:05:27;;;;;;;;;0.00;0.00;;;;;19.93;76.96;100588.53;5014206;28;49812;-71
2022/10/15 10:08:15;;;;;;;;;2.00;0.00;;;;;20.58;76.94;100676.97;5018654;28;50745;-69
2022/10/15 10:10:41;;;;;;;;;0.00;0.00;;;;;20.62;76.12;100667.09;5017788;28;50017;-73
2022/10/15 10:13:22;;;;;;;;;0.25;0.25;;;;;20.51;76.22;100651.31;5011930;28;49730;-73
2022/10/15 10:15:52;;;;;;;;;0.75;0.75;;;;;20.55;75.19;100674.34;5012286;28;49925;-70
2022/10/15 10:18:23;;;;;;;;;0.00;0.00;;;;;20.20;75.50;100628.88;5006302;28;50047;-69
2022/10/15 10:20:57;;;;;;;;;0.50;0.00;;;;;20.43;74.97;100676.38;5014383;28;50075;-70
2022/10/15 10:23:28;;;;;;;;;0.75;0.00;;;;;20.34;74.51;100657.88;5013294;28;49935;-71
2022/10/15 10:25:58;;;;;;;;;0.00;0.00;;;;;20.25;74.73;100666.94;5010668;28;49615;-75
2022/10/15 10:28:32;;;;;;;;;0.00;0.00;;;;;20.16;74.35;100613.81;5003189;28;50512;-72
2022/10/15 10:31:05;;;;;;;;;0.00;0.00;;;;;20.23;72.57;100623.47;5004622;28;49730;-75
2022/10/15 10:33:45;;;;;;;;;0.00;0.00;;;;;20.41;72.21;100662.19;5008654;28;49796;-74
2022/10/15 10:36:29;;;;;;;;;0.00;0.00;;;;;19.84;71.93;100574.53;5007130;28;50051;-73
2022/10/15 10:39:12;;;;;;;;;0.00;0.00;;;;;20.36;71.31;100648.94;5010249;28;51357;-76
2022/10/15 10:41:56;;;;;;;;;0.00;0.00;;;;;20.77;70.44;100674.75;4994116;28;49967;-76
2022/10/15 10:44:28;;;;;;;;;0.00;0.00;;;;;20.38;69.45;100571.63;5002884;28;49875;-77
2022/10/15 10:47:08;;;;;;;;;0.00;0.00;;;;;20.85;68.84;100670.13;5026013;28;49965;-77
2022/10/15 10:49:37;;;;;;;;;1.50;0.50;;;;;20.86;68.78;100695.91;5003251;28;49960;-73
2022/10/15 10:52:03;;;;;;;;;0.00;0.00;;;;;20.61;67.39;100676.00;5003457;28;50008;-74
2022/10/15 10:54:30;;;;;;;;;0.00;0.00;;;;;20.40;67.97;100703.97;5004600;28;49828;-76
2022/10/15 10:56:57;;;;;;;;;0.00;0.00;;;;;20.05;71.65;100693.13;5007581;28;50507;-73
2022/10/15 10:59:39;;;;;;;;;0.00;0.00;;;;;20.01;72.57;100710.97;5013494;28;49784;-73
2022/10/15 11:02:11;;;;;;;;;0.00;0.00;;;;;19.88;72.71;100699.66;5018621;28;49583;-72
2022/10/15 11:04:38;;;;;;;;;0.00;0.00;;;;;19.86;72.31;100717.44;5019290;28;49389;-80
2022/10/15 11:07:12;;;;;;;;;1.00;1.00;;;;;19.88;72.89;100715.66;5014943;28;49277;-78
2022/10/15 11:10:02;;;;;;;;;0.00;0.00;;;;;19.71;73.63;100691.09;5023975;28;49945;-80
2022/10/15 11:12:49;;;;;;;;;0.00;0.00;;;;;19.91;74.13;100720.03;5018760;28;49746;-78
2022/10/15 11:15:33;;;;;;;;;0.00;0.00;;;;;19.93;72.96;100726.22;5019753;28;49422;-74
2022/10/15 11:18:34;;;;;;;;;0.00;0.00;;;;;19.88;73.16;100699.66;5013899;28;49702;-79
2022/10/15 11:21:15;;;;;;;;;0.00;0.00;;;;;20.10;72.95;100726.78;5010998;28;49831;-78
2022/10/15 11:23:52;;;;;;;;;0.00;0.00;;;;;20.38;73.55;100726.25;5008401;28;49552;-78
2022/10/15 11:26:51;;;;;;;;;0.00;0.00;;;;;20.53;72.53;100724.16;5018638;28;49621;-77
2022/10/15 11:29:49;;;;;;;;;0.00;0.00;;;;;20.61;71.64;100689.34;5010442;28;49701;-75
2022/10/15 11:32:50;;;;;;;;;0.00;0.00;;;;;20.86;70.70;100690.56;5011186;28;49713;-76
2022/10/15 11:35:34;;;;;;;;;0.00;0.00;;;;;21.23;69.54;100716.41;5013429;28;49775;-76
2022/10/15 11:38:15;;;;;;;;;0.00;0.00;;;;;21.36;68.48;100692.97;5013416;28;49745;-76
2022/10/15 11:40:43;;;;;;;;;0.00;0.00;;;;;21.73;66.17;100703.63;5011978;28;49918;-76
2022/10/15 11:43:36;;;;;;;;;0.00;0.00;;;;;21.85;65.95;100705.97;5010638;28;50629;-81
2022/10/15 11:46:30;;;;;;;;;0.00;0.00;;;;;21.76;65.14;100691.97;5021505;28;49831;-80
2022/10/15 11:49:02;;;;;;;;;0.00;0.00;;;;;21.79;64.43;100699.88;5001049;28;50022;-77
2022/10/15 11:51:59;;;;;;;;;0.00;0.00;;;;;21.40;64.99;100627.88;5001730;28;50592;-77
2022/10/15 11:54:34;;;;;;;;;0.00;0.00;;;;;21.60;64.13;100678.13;5007744;28;51862;-78
2022/10/15 11:57:02;;;;;;;;;0.00;0.00;;;;;21.65;64.38;100686.91;5003504;28;49859;-77
2022/10/15 11:59:52;;;;;;;;;0.00;0.00;;;;;21.36;64.02;100659.16;5006561;28;50543;-78
2022/10/15 12:02:20;;;;;;;;;0.00;0.00;;;;;21.56;63.82;100685.34;5009207;28;50032;-77
2022/10/15 12:04:54;;;;;;;;;0.00;0.00;;;;;21.23;63.95;100592.69;5012357;28;50097;-78
2022/10/15 12:07:25;;;;;;;;;0.00;0.00;;;;;21.64;61.92;100664.66;5013127;28;49732;-77
2022/10/15 12:09:55;;;;;;;;;0.50;0.25;;;;;21.94;62.73;100700.38;5012467;28;49779;-77
2022/10/15 12:12:32;;;;;;;;;0.00;0.00;;;;;22.11;62.25;100694.59;5013005;28;49862;-77
2022/10/15 12:15:30;;;;;;;;;0.00;0.00;;;;;21.63;62.56;100629.97;5012445;28;50323;-77
2022/10/15 12:18:19;;;;;;;;;0.00;0.00;;;;;21.99;61.66;100646.78;5012850;28;49742;-78
2022/10/15 12:20:45;;;;;;;;;0.00;0.00;;;;;22.13;59.22;100690.09;5012052;28;49968;-75
2022/10/15 12:23:25;;;;;;;;;0.00;0.00;;;;;22.03;59.59;100701.91;5012460;28;50166;-76
2022/10/15 12:25:51;;;;;;;;;0.00;0.00;;;;;21.58;58.26;100654.13;5006737;28;50600;-75
2022/10/15 12:28:17;;;;;;;;;0.00;0.00;;;;;21.78;59.02;100709.69;5005806;28;51139;-76
2022/10/15 12:31:00;;;;;;;;;0.00;0.00;;;;;21.76;58.86;100711.53;5027119;28;50095;-77
2022/10/15 12:33:33;;;;;;;;;0.00;0.00;;;;;21.81;58.20;100714.09;5018930;28;49772;-76
2022/10/15 12:36:08;;;;;;;;;0.00;0.00;;;;;21.59;58.27;100674.56;5010232;28;50078;-89
2022/10/15 12:38:39;;;;;;;;;0.00;0.00;;;;;21.90;58.74;100713.84;5005704;28;49936;-77
2022/10/15 12:41:09;;;;;;;;;0.00;0.00;;;;;21.90;59.07;100701.34;5004580;28;49864;-74
2022/10/15 12:43:45;;;;;;;;;0.00;0.00;;;;;22.05;58.28;100699.19;5021345;28;49702;-74
2022/10/15 12:46:13;;;;;;;;;0.00;0.00;;;;;21.96;58.19;100670.94;5008244;28;49844;-76
2022/10/15 12:48:44;;;;;;;;;1.00;0.00;;;;;22.20;58.05;100691.69;5012341;28;49999;-75
2022/10/15 12:51:15;;;;;;;;;0.00;0.00;;;;;22.37;57.51;100699.19;5009684;28;49820;-76
2022/10/15 12:53:43;;;;;;;;;0.00;0.00;;;;;22.40;57.89;100700.94;5012569;28;50095;-74
2022/10/15 12:56:12;;;;;;;;;0.00;0.00;;;;;22.36;57.41;100705.47;5010909;28;52642;-76
2022/10/15 12:58:46;;;;;;;;;0.00;0.00;;;;;21.86;56.67;100642.69;5009567;28;49963;-76
2022/10/15 13:01:15;;;;;;;;;0.00;0.00;;;;;22.16;57.99;100699.81;5005863;28;49879;-73
2022/10/15 13:03:51;;;;;;;;;0.00;0.00;;;;;22.16;58.21;100697.13;5012314;28;49786;-75
2022/10/15 13:06:19;;;;;;;;;0.00;0.00;;;;;22.15;57.64;100688.25;5007654;28;49921;-74
2022/10/15 13:09:10;;;;;;;;;0.00;0.00;;;;;21.83;57.33;100659.69;5012568;28;49694;-78
2022/10/15 13:11:44;;;;;;;;;0.00;0.00;;;;;21.88;57.99;100662.22;5021962;28;49916;-79
2022/10/15 13:14:26;;;;;;;;;0.00;0.00;;;;;21.92;57.78;100669.28;5013414;28;49868;-82
2022/10/15 13:16:59;;;;;;;;;0.00;0.00;;;;;21.62;58.07;100628.22;5013776;28;50879;-83
2022/10/15 13:19:38;;;;;;;;;0.00;0.00;;;;;21.67;58.91;100656.56;5004758;28;49760;-79
2022/10/15 13:22:18;;;;;;;;;0.00;0.00;;;;;21.48;57.83;100643.72;5027539;28;49673;-80
2022/10/15 13:24:44;;;;;;;;;0.00;0.00;;;;;21.62;58.87;100670.97;5008493;28;49772;-76
2022/10/15 13:27:36;;;;;;;;;0.00;0.00;;;;;21.24;58.77;100647.88;5006714;28;49792;-78
2022/10/15 13:30:14;;;;;;;;;0.00;0.00;;;;;20.75;59.49;100576.97;5011471;28;50069;-76
2022/10/15 13:32:48;;;;;;;;;0.00;0.00;;;;;21.28;59.97;100671.81;5008916;28;50016;-77
2022/10/15 13:35:21;;;;;;;;;0.00;0.00;;;;;21.33;59.64;100661.03;5012306;28;49670;-79
2022/10/15 13:37:47;;;;;;;;;0.00;0.00;;;;;21.43;59.76;100675.91;5013203;28;51194;-76
2022/10/15 13:40:22;;;;;;;;;0.00;0.00;;;;;21.47;59.25;100674.00;5009027;28;49997;-79
2022/10/15 13:43:02;;;;;;;;;0.00;0.00;;;;;21.54;59.02;100673.84;5013107;28;49896;-83
2022/10/15 13:45:28;;;;;;;;;0.00;0.00;;;;;21.54;57.80;100676.50;5014467;28;49662;-73
2022/10/15 13:48:15;;;;;;;;;0.00;0.00;;;;;21.29;57.53;100640.63;5012431;28;50334;-81
2022/10/15 13:50:40;;;;;;;;;0.00;0.00;;;;;21.43;57.39;100651.88;5023845;28;50423;-81
2022/10/15 13:53:24;;;;;;;;;0.25;0.00;;;;;21.55;57.27;100672.91;5004051;28;50187;-77
2022/10/15 13:55:52;;;;;;;;;1.00;0.00;;;;;21.45;56.36;100659.84;5013490;28;49673;-76
2022/10/15 13:58:19;;;;;;;;;0.75;0.75;;;;;21.53;55.42;100677.41;5020429;28;49680;-79
2022/10/15 14:01:10;;;;;;;;;0.00;0.00;;;;;21.31;54.99;100658.38;5008902;28;49847;-86
2022/10/15 14:03:38;;;;;;;;;0.75;0.75;;;;;21.00;53.33;100620.84;5012609;28;49997;-85
2022/10/15 14:06:18;;;;;;;;;0.00;0.00;;;;;20.47;53.00;100528.78;5019973;28;50082;-90
2022/10/15 14:08:53;;;;;;;;;1.50;0.00;;;;;21.25;52.55;100670.97;5007721;28;50002;-89
2022/10/15 14:11:18;;;;;;;;;0.00;0.00;;;;;21.37;52.38;100681.38;5023436;28;49917;-83
2022/10/15 14:13:49;;;;;;;;;0.00;0.00;;;;;20.71;52.99;100585.97;5012417;28;49429;-86
2022/10/15 14:16:32;;;;;;;;;0.00;0.00;;;;;21.28;52.79;100681.59;5020250;28;49729;-74
2022/10/15 14:19:19;;;;;;;;;0.00;0.00;;;;;21.14;51.95;100688.13;5010333;28;49739;-76
2022/10/15 14:21:47;;;;;;;;;0.00;0.00;;;;;20.50;49.96;100601.56;5018989;28;49434;-76
2022/10/15 14:24:19;;;;;;;;;0.00;0.00;;;;;20.97;49.03;100700.13;5002889;28;49941;-77
2022/10/15 14:26:45;;;;;;;;;0.00;0.00;;;;;20.72;49.19;100679.31;5006415;28;49723;-79
2022/10/15 14:29:29;;;;;;;;;0.00;0.00;;;;;20.79;49.77;100698.72;5007525;28;51122;-76
2022/10/15 14:31:55;;;;;;;;;0.25;0.00;;;;;20.61;50.03;100676.00;5007735;28;49907;-83
2022/10/15 14:34:34;;;;;;;;;0.00;0.00;;;;;20.57;49.71;100688.53;5004325;28;50024;-76
2022/10/15 14:37:27;;;;;;;;;0.00;0.00;;;;;20.39;49.76;100691.56;5008624;28;49970;-84
2022/10/15 14:40:03;;;;;;;;;1.00;1.00;;;;;20.47;50.66;100726.09;5020141;28;50475;-90
2022/10/15 14:42:36;;;;;;;;;0.00;0.00;;;;;20.10;50.99;100667.28;5014600;28;49564;-78
2022/10/15 14:45:17;;;;;;;;;0.00;0.00;;;;;19.84;53.13;100650.00;5007832;28;49932;-79
2022/10/15 14:47:56;;;;;;;;;0.00;0.00;;;;;20.29;52.22;100735.31;4995086;28;49767;-76
2022/10/15 14:50:33;;;;;;;;;0.00;0.00;;;;;20.05;53.46;100690.44;5006471;28;49728;-81
2022/10/15 14:53:04;;;;;;;;;0.00;0.00;;;;;20.25;53.58;100725.59;5011868;28;50208;-76
2022/10/15 14:55:37;;;;;;;;;0.00;0.00;;;;;20.23;53.08;100728.28;5018332;28;49799;-74
2022/10/15 14:58:24;;;;;;;;;0.75;0.00;;;;;20.21;54.03;100723.91;5014527;28;49734;-79
2022/10/15 15:01:04;;;;;;;;;0.00;0.00;;;;;20.07;53.75;100701.97;5021150;28;52451;-78
2022/10/15 15:03:41;;;;;;;;;0.00;0.00;;;;;19.81;54.24;100658.06;5008348;28;49716;-77
2022/10/15 15:06:08;;;;;;;;;0.00;0.00;;;;;20.24;54.76;100734.50;5012386;28;49789;-78
2022/10/15 15:08:33;;;;;;;;;0.00;0.00;;;;;20.28;54.65;100733.56;5013844;28;49773;-73
2022/10/15 15:11:02;;;;;;;;;1.50;1.00;;;;;20.16;54.90;100717.78;5005048;28;50481;-73
2022/10/15 15:13:30;;;;;;;;;0.00;0.00;;;;;20.24;54.63;100742.50;5011808;28;50102;-73
2022/10/15 15:15:56;;;;;;;;;0.00;0.00;;;;;20.20;53.63;100746.13;5008815;28;49910;-75
2022/10/15 15:18:21;;;;;;;;;0.00;0.00;;;;;20.20;54.07;100747.03;5011686;28;49917;-76
2022/10/15 15:20:49;;;;;;;;;0.00;0.00;;;;;20.18;54.42;100745.28;5011904;28;50354;-73
2022/10/15 15:23:26;;;;;;;;;0.00;0.00;;;;;20.17;54.22;100739.09;5012136;28;50131;-76
2022/10/15 15:25:53;;;;;;;;;0.50;0.50;;;;;20.21;54.77;100746.09;5008772;28;49920;-74
2022/10/15 15:28:22;;;;;;;;;0.00;0.00;;;;;20.18;54.31;100740.84;5004052;28;49844;-72
2022/10/15 15:31:12;;;;;;;;;0.25;0.00;;;;;19.65;54.25;100669.88;5030870;28;52490;-74
2022/10/15 15:33:47;;;;;;;;;0.00;0.00;;;;;19.83;54.42;100701.50;5005795;28;50233;-75
2022/10/15 15:36:17;;;;;;;;;0.00;0.00;;;;;20.01;54.42;100754.47;5012435;28;49850;-73
2022/10/15 15:38:43;;;;;;;;;0.00;0.00;;;;;19.94;54.22;100742.16;5007007;28;50316;-71
2022/10/15 15:41:14;;;;;;;;;0.00;0.00;;;;;19.63;53.98;100701.00;5014419;28;60901;-70
2022/10/15 15:43:40;;;;;;;;;0.00;0.00;;;;;19.79;54.94;100733.56;5012665;28;49777;-75
2022/10/15 15:46:06;;;;;;;;;0.00;0.00;;;;;19.82;54.34;100741.50;5028471;28;49768;-74
2022/10/15 15:48:31;;;;;;;;;0.00;0.00;;;;;19.76;54.09;100733.59;5012842;28;49882;-71
2022/10/15 15:51:21;;;;;;;;;0.00;0.00;;;;;19.65;55.34;100736.47;5011834;28;49910;-70
2022/10/15 15:53:47;;;;;;;;;0.00;0.00;;;;;19.33;54.91;100694.38;5000914;28;49952;-73
2022/10/15 15:56:12;;;;;;;;;1.00;1.00;;;;;19.18;55.52;100682.16;5010563;28;49865;-72
2022/10/15 15:58:37;;;;;;;;;0.00;0.00;;;;;19.21;55.58;100697.22;5012870;28;49833;-72
2022/10/15 16:01:03;;;;;;;;;0.00;0.00;;;;;19.37;56.08;100736.00;5015157;28;51012;-70
2022/10/15 16:03:28;;;;;;;;;0.00;0.00;;;;;19.23;55.30;100738.00;5018919;28;49982;-71
2022/10/15 16:05:53;;;;;;;;;0.00;0.00;;;;;19.10;55.71;100730.19;5014402;28;49790;-72
2022/10/15 16:08:19;;;;;;;;;0.00;0.00;;;;;19.01;56.09;100710.81;5017504;28;49691;-72
2022/10/15 16:10:44;;;;;;;;;1.00;1.00;;;;;18.68;55.62;100673.16;5019385;28;50381;-73
2022/10/15 16:13:09;;;;;;;;;1.00;0.00;;;;;18.59;55.46;100678.56;5014709;28;49813;-72
2022/10/15 16:15:35;;;;;;;;;0.00;0.00;;;;;17.74;55.74;100561.84;5021164;28;50141;-74
2022/10/15 16:18:00;;;;;;;;;1.00;1.00;;;;;18.57;55.85;100697.19;5007522;28;50078;-70
2022/10/15 16:20:25;;;;;;;;;3.25;2.25;;;;;18.95;55.68;100748.16;5010040;28;51320;-72
2022/10/15 16:22:52;;;;;;;;;0.75;0.75;;;;;18.35;56.18;100669.16;5012515;28;49759;-72
2022/10/15 16:25:18;;;;;;;;;1.00;1.00;;;;;18.78;55.86;100735.97;5017555;28;49830;-73
2022/10/15 16:27:50;;;;;;;;;0.00;0.00;;;;;18.23;55.61;100621.44;5006263;28;49702;-73
2022/10/15 16:30:17;;;;;;;;;0.50;0.50;;;;;18.80;56.03;100707.56;5006090;28;49680;-72
2022/10/15 16:32:42;;;;;;;;;0.00;0.00;;;;;18.80;56.18;100714.66;5011599;28;49798;-71
2022/10/15 16:35:08;;;;;;;;;0.00;0.00;;;;;18.91;55.90;100722.47;5013017;28;50164;-71
2022/10/15 16:37:33;;;;;;;;;2.25;1.00;;;;;18.40;56.23;100626.56;5012314;28;50128;-72
2022/10/15 16:39:58;;;;;;;;;0.00;0.00;;;;;18.75;56.85;100704.09;5012210;28;52749;-75
2022/10/15 16:42:24;;;;;;;;;0.50;0.50;;;;;18.13;56.77;100610.06;5012208;28;49642;-71
2022/10/15 16:44:50;;;;;;;;;1.00;1.00;;;;;18.77;57.23;100718.25;5012227;28;49615;-70
2022/10/15 16:47:15;;;;;;;;;1.00;1.00;;;;;18.54;57.06;100678.66;5012379;28;49800;-71
2022/10/15 16:49:41;;;;;;;;;2.00;2.00;;;;;18.49;56.76;100692.88;5001918;28;50615;-70
2022/10/15 16:52:07;;;;;;;;;0.75;0.75;;;;;18.74;57.41;100759.97;5011785;28;49670;-71
2022/10/15 16:54:33;;;;;;;;;0.50;0.50;;;;;18.55;57.59;100727.38;5012574;28;49741;-72
2022/10/15 16:56:58;;;;;;;;;1.75;0.75;;;;;18.61;57.54;100756.53;5012188;28;50083;-72
2022/10/15 16:59:24;;;;;;;;;0.00;0.00;;;;;18.06;57.82;100692.53;5012027;28;50338;-73
2022/10/15 17:01:49;;;;;;;;;0.00;0.00;;;;;18.64;58.59;100787.53;5017766;28;49672;-70
2022/10/15 17:04:14;;;;;;;;;1.00;1.00;;;;;18.61;58.25;100783.09;5012043;28;49798;-71
2022/10/15 17:06:40;;;;;;;;;1.00;1.00;;;;;18.59;59.06;100783.13;5012015;28;50025;-71
2022/10/15 17:09:05;;;;;;;;;0.00;0.00;;;;;18.53;59.00;100785.00;5011752;28;50201;-71
2022/10/15 17:11:34;;;;;;;;;0.00;0.00;;;;;18.53;59.18;100791.19;5018208;28;49734;-77
2022/10/15 17:14:03;;;;;;;;;0.00;0.00;;;;;18.46;58.96;100794.81;5011935;28;49928;-80
2022/10/15 17:16:31;;;;;;;;;0.00;0.00;;;;;18.41;59.43;100801.94;5012045;28;49583;-71
2022/10/15 17:18:57;;;;;;;;;0.75;0.75;;;;;18.43;59.90;100801.91;5011401;28;50566;-70
2022/10/15 17:21:27;;;;;;;;;0.00;0.00;;;;;18.39;60.19;100797.56;5016060;28;49734;-73
2022/10/15 17:23:58;;;;;;;;;0.00;0.00;;;;;18.22;60.28;100782.66;5009237;28;49929;-82
2022/10/15 17:26:29;;;;;;;;;2.00;1.00;;;;;18.19;60.31;100800.41;5027390;28;49957;-77
2022/10/15 17:28:58;;;;;;;;;0.00;0.00;;;;;17.88;60.94;100752.00;5022663;28;49990;-84
2022/10/15 17:31:25;;;;;;;;;0.00;0.00;;;;;17.30;61.21;100663.13;5007884;28;49671;-83
2022/10/15 17:34:10;;;;;;;;;0.00;0.00;;;;;17.91;61.40;100767.91;5010403;28;49823;-75
2022/10/15 17:36:41;;;;;;;;;1.00;1.00;;;;;18.10;61.67;100812.00;5017498;28;49750;-73
2022/10/15 17:39:08;;;;;;;;;1.50;1.00;;;;;18.03;61.40;100805.84;5017680;28;49674;-76
2022/10/15 17:41:33;;;;;;;;;1.50;1.50;;;;;17.95;61.55;100791.78;5011646;28;49874;-78
2022/10/15 17:43:58;;;;;;;;;2.00;2.00;;;;;18.10;61.47;100819.97;5009022;28;58776;-76
2022/10/15 17:46:27;;;;;;;;;1.00;1.00;;;;;17.93;60.98;100793.56;5006939;28;56914;-79
2022/10/15 17:48:53;;;;;;;;;2.50;2.50;;;;;18.12;61.55;100815.53;5014913;28;51540;-81
2022/10/15 17:51:21;;;;;;;;;1.00;1.00;;;;;17.84;61.46;100758.22;4998590;28;49576;-75
2022/10/15 17:53:50;;;;;;;;;0.50;0.50;;;;;18.10;61.42;100803.16;5006688;28;50105;-75
2022/10/15 17:56:21;;;;;;;;;3.00;2.00;;;;;18.16;61.10;100825.25;5002914;28;49730;-74
2022/10/15 17:58:48;;;;;;;;;4.00;3.75;;;;;17.99;61.45;100809.44;5001085;28;50275;-78
2022/10/15 18:01:23;;;;;;;;;3.00;3.00;;;;;17.92;61.48;100806.84;4997253;28;49686;-74
2022/10/15 18:03:49;;;;;;;;;1.50;0.00;;;;;17.79;61.86;100784.84;5004974;28;49993;-84
2022/10/15 18:06:17;;;;;;;;;0.00;0.00;;;;;17.71;62.09;100787.56;5020980;28;49822;-76
2022/10/15 18:08:42;;;;;;;;;1.00;1.00;;;;;17.74;61.84;100797.25;4996126;28;51518;-75
2022/10/15 18:11:09;;;;;;;;;1.00;1.00;;;;;17.64;62.55;100803.50;5003414;28;49915;-74
2022/10/15 18:13:35;;;;;;;;;0.75;0.75;;;;;17.30;62.99;100777.22;5014674;28;50068;-73
2022/10/15 18:16:00;;;;;;;;;1.00;1.00;;;;;16.94;63.50;100697.88;5011667;28;49869;-77
2022/10/15 18:18:26;;;;;;;;;3.00;3.00;;;;;17.08;63.63;100718.13;5015739;28;50009;-74
2022/10/15 18:20:52;;;;;;;;;1.00;1.00;;;;;17.29;64.03;100759.53;5039623;28;49619;-75
2022/10/15 18:23:18;;;;;;;;;1.50;1.00;;;;;17.49;64.80;100809.81;5027663;28;49559;-73
2022/10/15 18:25:44;;;;;;;;;2.00;1.00;;;;;16.94;65.25;100712.00;5015027;28;49592;-74
2022/10/15 18:28:09;;;;;;;;;2.00;2.00;;;;;16.81;65.14;100686.47;5022082;28;49950;-74
2022/10/15 18:30:39;;;;;;;;;1.25;1.25;;;;;17.30;65.18;100773.69;5021178;28;49350;-74
2022/10/15 18:33:06;;;;;;;;;1.00;1.00;;;;;17.52;65.65;100804.47;5013687;28;49675;-72
2022/10/15 18:35:36;;;;;;;;;2.00;2.00;;;;;17.41;66.05;100808.97;5020263;28;50161;-70
2022/10/15 18:38:01;;;;;;;;;2.50;1.00;;;;;17.39;66.82;100816.94;5014541;28;50109;-73
2022/10/15 18:40:27;;;;;;;;;3.00;3.00;;;;;17.04;67.16;100769.41;5022028;28;49208;-74
2022/10/15 18:42:52;;;;;;;;;2.00;2.00;;;;;17.52;67.66;100854.03;5020899;28;51073;-72
2022/10/15 18:45:17;;;;;;;;;2.00;1.00;;;;;17.37;67.99;100826.69;5022153;28;61385;-72
2022/10/15 18:47:43;;;;;;;;;3.50;3.50;;;;;17.07;68.12;100793.25;5026478;28;50299;-70
2022/10/15 18:50:08;;;;;;;;;2.75;2.25;;;;;16.68;68.40;100746.59;5021042;28;51826;-73
2022/10/15 18:52:34;;;;;;;;;2.00;2.00;;;;;16.83;68.90;100767.75;4994141;28;49871;-73
2022/10/15 18:54:59;;;;;;;;;1.50;1.50;;;;;17.52;69.15;100876.13;5019144;28;49628;-72
2022/10/15 18:57:24;;;;;;;;;1.00;1.00;;;;;17.16;68.94;100806.44;5021590;28;65539;-72
2022/10/15 18:59:50;;;;;;;;;2.25;1.00;;;;;17.38;69.03;100851.47;5007393;28;49872;-73
2022/10/15 19:02:15;;;;;;;;;2.50;2.50;;;;;16.64;69.08;100691.81;5012584;28;58419;-72
2022/10/15 19:04:41;;;;;;;;;2.25;2.25;;;;;17.57;69.65;100855.78;5008834;28;49806;-76
2022/10/15 19:07:06;;;;;;;;;2.50;1.25;;;;;17.17;70.00;100789.66;5004076;28;49942;-81
2022/10/15 19:09:33;;;;;;;;;3.00;1.50;;;;;16.92;69.71;100771.25;5016044;28;49506;-82
2022/10/15 19:11:59;;;;;;;;;3.00;3.00;;;;;17.21;70.00;100795.84;5012966;28;49780;-80
2022/10/15 19:14:27;;;;;;;;;2.00;2.00;;;;;17.49;70.13;100849.63;5013397;28;49582;-77
2022/10/15 19:16:53;;;;;;;;;2.00;2.00;;;;;16.91;70.30;100791.56;5015867;28;50361;-74
2022/10/15 19:19:20;;;;;;;;;1.75;1.75;;;;;16.22;70.30;100650.50;5015687;28;50592;-80
2022/10/15 19:21:47;;;;;;;;;3.75;2.00;;;;;16.59;70.41;100725.38;5013850;28;49640;-83
2022/10/15 19:24:13;;;;;;;;;1.25;1.25;;;;;17.37;70.69;100858.53;5019982;28;49449;-73
2022/10/15 19:26:39;;;;;;;;;2.25;2.00;;;;;17.06;70.95;100807.38;5018031;28;49615;-84
2022/10/15 19:29:04;;;;;;;;;1.75;1.75;;;;;16.97;70.79;100786.22;5013803;28;49521;-72
2022/10/15 19:31:36;;;;;;;;;2.00;2.00;;;;;17.32;70.65;100840.88;5011799;28;49333;-77
2022/10/15 19:34:02;;;;;;;;;3.00;3.00;;;;;17.32;70.81;100862.97;5006111;28;49404;-80
2022/10/15 19:36:33;;;;;;;;;4.75;3.25;;;;;17.29;70.60;100862.13;5017598;28;50155;-75
2022/10/15 19:39:08;;;;;;;;;2.00;1.00;;;;;17.26;70.94;100899.25;5013560;28;49379;-76
2022/10/15 19:41:39;;;;;;;;;2.50;1.00;;;;;15.88;71.06;100669.13;5010267;28;49720;-83
2022/10/15 19:44:07;;;;;;;;;4.50;2.00;;;;;17.04;71.11;100846.31;5024591;28;49806;-72
2022/10/15 19:46:35;;;;;;;;;1.75;1.75;;;;;16.20;71.34;100726.41;5009903;28;49956;-83
2022/10/15 19:49:01;;;;;;;;;2.50;1.00;;;;;17.15;71.48;100894.00;5015209;28;49712;-73
2022/10/15 19:51:27;;;;;;;;;2.00;1.50;;;;;16.53;71.73;100778.44;5007145;28;49421;-72
2022/10/15 19:53:55;;;;;;;;;1.50;1.50;;;;;17.07;71.98;100866.63;5013880;28;49374;-72
2022/10/15 19:56:21;;;;;;;;;1.00;1.00;;;;;16.87;72.13;100842.84;5014957;28;51507;-73
2022/10/15 19:58:46;;;;;;;;;2.00;0.50;;;;;17.07;72.19;100898.44;5010723;28;49626;-70
2022/10/15 20:01:12;;;;;;;;;1.00;1.00;;;;;16.47;72.38;100816.41;5011434;28;49502;-71
2022/10/15 20:03:37;;;;;;;;;2.75;2.75;;;;;16.36;72.58;100765.22;5004896;28;50151;-72
2022/10/15 20:06:07;;;;;;;;;1.00;1.00;;;;;16.24;72.74;100738.78;5014518;28;50260;-72
2022/10/15 20:08:32;;;;;;;;;3.25;2.00;;;;;16.83;73.08;100839.31;5015186;28;49670;-83
2022/10/15 20:10:58;;;;;;;;;1.00;1.00;;;;;16.59;73.23;100810.19;5016139;28;49860;-79
2022/10/15 20:13:23;;;;;;;;;1.50;1.00;;;;;16.79;73.45;100856.16;5019025;28;50763;-71
2022/10/15 20:15:51;;;;;;;;;2.75;1.50;;;;;16.87;73.65;100864.03;5016086;28;50043;-87
2022/10/15 20:18:17;;;;;;;;;1.75;1.75;;;;;16.82;73.89;100864.06;5015613;28;50082;-81
2022/10/15 20:20:44;;;;;;;;;2.00;2.00;;;;;16.79;73.87;100887.03;5020287;28;49518;-73
2022/10/15 20:23:13;;;;;;;;;3.00;1.25;;;;;17.02;73.87;100893.19;5013676;28;49568;-71
2022/10/15 20:25:38;;;;;;;;;2.50;2.00;;;;;17.06;73.95;100925.88;5011044;28;50183;-74